map of BRU home
BRU - Airport
Location
City:  Brussels, Vlaams-Brabant (Flemish Brabant), Belgium
Near (Alt.):Zaventem
Name:Brussels Airport
Old (Alt.):Brussels National Airport
ICAO:EBBR
IATA:BRU

Details
Type:Airport (Aerodrome, Airfield)
Use:Public/Civil, Military, International (customs port of entry)
Latitude:5054'05"N (50.901389)
Longitude:429'04"E (4.484444)
Datum:WGS 1984
Elevation:184 ft (56 m)
Variation:1.20E (WMM2015 magnetic declination)
0.14 annual change
Runways:3
Longest:11936 × 148 ft (3638 × 45 m), paved

Time
Time Zone:UTC+1 (DST+2)
Local Time:

Weather
METAR:EBBR 190150Z 18002KT CAVOK 13/10 Q1019 NOSIG
TAF:EBBR 182303Z 1900/2006 30003KT CAVOK= TAF EBOS 182303Z 1900/2006 06003KT CAVOK PROB30
TEMPO 1903/1905 4000 BR PROB30
TEMPO 2003/2006 3000 BR

Related Locations
Nearby:
Farthest:CHT: 11938 mi / 19212 km
Waitangi [Tuuta], CIT, NZ

Find:

   beyond  
but within

Other Information
Maps:
NOTAMs:
Links:
Sources:

  
  • flag of Belgium
  • flag of Vlaams-Brabant (Flemish Brabant)
  

Airport Diagram

Airport diagram for BRU

Larger airport diagram (OBSOLETE) from NGA

Sectional Chart

Flight Planning
at skyvector.com

Satellite Image

Google Maps Satellite view

 

Copyright © 2004-2018 Karl L. Swartz. All rights reserved.
The Great Circle Mapper name and logo are trademarks of the Great Circle Mapper.
All other trademarks mentioned herein belong to their respective owners.
Please see credits for attibutions and further copyright information.

  Follow gcmap on Facebook Follow gcmap on Twitter Follow gcmap on Google+ GCmap on LinkedIn

hCard Microformat

Geo Microformat